Time;durP1;ratioP1;P1;durP2;ratioP2;P2;SDS_P1;SDS_P2;PMS_P1;PMS_P2;Temp;Humidity;BMP_temperature;BMP_pressure;BME280_temperature;BME280_humidity;BME280_pressure;Samples;Min_cycle;Max_cycle;Signal;HPM_P1;HPM_P2
2022/10/14 00:02:37;;;;;;;38.95;24.58;;;;;;;10.84;100.00;101315.56;10361986;28;20591;-79
2022/10/14 00:07:37;;;;;;;38.70;23.48;;;;;;;10.84;100.00;101307.69;10360925;28;20033;-79
2022/10/14 00:12:38;;;;;;;42.22;22.83;;;;;;;10.83;100.00;101311.13;10360564;28;20034;-79
2022/10/14 00:17:38;;;;;;;38.40;21.88;;;;;;;10.81;100.00;101304.91;10342141;28;20469;-79
2022/10/14 00:22:39;;;;;;;45.72;25.33;;;;;;;10.89;100.00;101294.88;10361359;28;20056;-79
2022/10/14 00:27:39;;;;;;;37.35;24.27;;;;;;;10.89;100.00;101293.94;10359894;28;20045;-80
2022/10/14 00:32:40;;;;;;;45.92;26.13;;;;;;;10.84;100.00;101294.59;10360538;28;20072;-80
2022/10/14 00:37:40;;;;;;;42.63;24.77;;;;;;;10.83;100.00;101292.81;10358263;28;20048;-79
2022/10/14 00:42:41;;;;;;;39.40;23.13;;;;;;;10.84;100.00;101293.72;10360563;28;20049;-79
2022/10/14 00:47:41;;;;;;;40.92;26.02;;;;;;;10.85;100.00;101287.66;10359301;28;20058;-78
2022/10/14 00:52:42;;;;;;;43.50;24.50;;;;;;;10.84;100.00;101278.91;10342252;28;20103;-79
2022/10/14 00:57:43;;;;;;;53.60;33.58;;;;;;;10.90;100.00;101278.34;10360042;28;22350;-80
2022/10/14 01:02:44;;;;;;;43.38;29.65;;;;;;;10.97;100.00;101271.69;10357455;28;20046;-80
2022/10/14 01:07:59;;;;;;;53.90;29.25;;;;;;;11.02;100.00;101271.13;10357025;28;20127;-80
2022/10/14 01:13:25;;;;;;;53.03;27.10;;;;;;;10.96;100.00;101269.88;10359434;28;20502;-79
2022/10/14 01:18:32;;;;;;;48.10;30.33;;;;;;;10.93;100.00;101268.03;10324945;28;20489;-79
2022/10/14 01:23:50;;;;;;;47.30;26.02;;;;;;;10.91;100.00;101260.88;10358506;28;20107;-80
2022/10/14 01:29:29;;;;;;;47.35;25.02;;;;;;;10.89;100.00;101258.22;10358496;28;20072;-79
2022/10/14 01:34:35;;;;;;;51.90;24.25;;;;;;;10.86;100.00;101253.69;10297136;28;20038;-80
2022/10/14 01:39:38;;;;;;;47.13;29.20;;;;;;;10.86;100.00;101243.22;10338414;28;20033;-80
2022/10/14 01:44:40;;;;;;;45.10;29.20;;;;;;;10.91;100.00;101235.63;10340023;28;20117;-79
2022/10/14 01:49:44;;;;;;;53.63;31.65;;;;;;;10.91;100.00;101226.84;10340529;28;20054;-77
2022/10/14 01:54:44;;;;;;;53.83;29.83;;;;;;;10.88;100.00;101222.38;10356233;28;20137;-78
2022/10/14 01:59:45;;;;;;;50.30;31.08;;;;;;;10.91;100.00;101219.00;10331008;28;20509;-78
2022/10/14 02:04:45;;;;;;;59.05;31.60;;;;;;;10.91;100.00;101214.66;10351537;28;20038;-78
2022/10/14 02:09:56;;;;;;;51.00;29.92;;;;;;;10.93;100.00;101215.66;10335525;28;20513;-78
2022/10/14 02:15:32;;;;;;;54.78;26.92;;;;;;;10.91;100.00;101209.44;10346642;28;20060;-78
2022/10/14 02:20:40;;;;;;;47.10;28.27;;;;;;;10.91;100.00;101196.34;10338658;28;20049;-77
2022/10/14 02:25:42;;;;;;;58.25;33.42;;;;;;;10.97;100.00;101194.03;10369707;28;20050;-78
2022/10/14 02:30:45;;;;;;;55.77;32.57;;;;;;;11.00;100.00;101183.72;10368130;28;20490;-78
2022/10/14 02:35:47;;;;;;;56.95;31.45;;;;;;;11.03;100.00;101188.19;10352353;28;20041;-78
2022/10/14 02:40:48;;;;;;;58.53;26.48;;;;;;;10.99;100.00;101181.91;10351921;28;20038;-78
2022/10/14 02:45:49;;;;;;;45.78;28.60;;;;;;;10.96;100.00;101181.75;10353254;28;20072;-78
2022/10/14 02:50:49;;;;;;;56.20;30.27;;;;;;;11.08;100.00;101180.59;10333423;28;20048;-80
2022/10/14 02:55:50;;;;;;;60.38;32.30;;;;;;;11.10;100.00;101178.94;10368593;28;20042;-79
2022/10/14 03:00:51;;;;;;;50.30;27.60;;;;;;;11.09;100.00;101175.41;10369006;28;20044;-79
2022/10/14 03:05:52;;;;;;;45.08;29.80;;;;;;;11.10;100.00;101161.50;10367904;28;20053;-79
2022/10/14 03:10:52;;;;;;;50.90;30.33;;;;;;;11.12;100.00;101162.47;10367483;28;20128;-79
2022/10/14 03:15:53;;;;;;;52.90;30.77;;;;;;;11.18;100.00;101153.13;10367227;28;20116;-79
2022/10/14 03:20:53;;;;;;;41.85;27.30;;;;;;;11.19;100.00;101145.34;10370347;28;20508;-78
2022/10/14 03:25:55;;;;;;;49.03;30.43;;;;;;;11.27;100.00;101143.09;10351596;28;20042;-78
2022/10/14 03:30:56;;;;;;;50.78;30.55;;;;;;;11.26;100.00;101136.06;10335430;28;20281;-79
2022/10/14 03:35:56;;;;;;;44.05;26.70;;;;;;;11.23;100.00;101138.53;10362985;28;20065;-78
2022/10/14 03:40:57;;;;;;;54.45;30.45;;;;;;;11.25;100.00;101136.88;10362355;28;20116;-79
2022/10/14 03:45:57;;;;;;;50.13;27.45;;;;;;;11.18;100.00;101130.44;10362868;28;20057;-79
2022/10/14 03:50:58;;;;;;;43.90;27.60;;;;;;;11.21;100.00;101128.00;10359466;28;20065;-78
2022/10/14 03:55:58;;;;;;;40.20;25.60;;;;;;;11.23;100.00;101122.81;10362882;28;20038;-78
2022/10/14 04:00:59;;;;;;;34.70;24.77;;;;;;;11.35;100.00;101112.03;10361802;28;20136;-78
2022/10/14 04:05:59;;;;;;;38.03;25.17;;;;;;;11.26;100.00;101110.78;10359658;28;20046;-78
2022/10/14 04:11:00;;;;;;;43.15;26.30;;;;;;;11.25;100.00;101114.22;10362486;28;20160;-78
2022/10/14 04:16:07;;;;;;;32.47;21.25;;;;;;;11.28;100.00;101121.31;10361136;28;20038;-78
2022/10/14 04:21:09;;;;;;;29.13;18.20;;;;;;;11.27;100.00;101112.56;10334479;28;20045;-81
2022/10/14 04:26:10;;;;;;;;;;;;;;;11.30;100.00;101106.56;10360233;28;20480;-79
2022/10/14 04:31:14;;;;;;;43.45;23.45;;;;;;;11.32;100.00;101107.53;10360061;28;19967;-79
2022/10/14 04:36:15;;;;;;;41.88;21.30;;;;;;;11.26;100.00;101104.63;10326080;28;20374;-80
2022/10/14 04:41:15;;;;;;;33.38;18.92;;;;;;;11.27;100.00;101109.03;10358953;28;20073;-80
2022/10/14 04:46:16;;;;;;;33.60;20.88;;;;;;;11.26;100.00;101105.53;10360328;28;20417;-81
2022/10/14 04:51:17;;;;;;;30.20;19.33;;;;;;;11.23;100.00;101092.28;10359414;28;20136;-80
2022/10/14 04:56:17;;;;;;;24.30;16.17;;;;;;;11.32;100.00;101086.56;10329048;28;20121;-79
2022/10/14 05:01:18;;;;;;;30.42;18.95;;;;;;;11.31;100.00;101087.41;10359416;28;20141;-79
2022/10/14 05:06:18;;;;;;;28.30;16.33;;;;;;;11.33;100.00;101084.88;10352039;28;20046;-84
2022/10/14 05:11:19;;;;;;;27.65;17.02;;;;;;;11.29;100.00;101075.94;10356371;28;20095;-85
2022/10/14 05:16:19;;;;;;;28.63;17.77;;;;;;;11.30;100.00;101072.50;10357933;28;20101;-80
2022/10/14 05:21:20;;;;;;;27.55;15.98;;;;;;;11.25;100.00;101069.66;10357263;28;20058;-79
2022/10/14 05:26:23;;;;;;;25.17;16.35;;;;;;;11.20;100.00;101073.78;10339242;28;20045;-81
2022/10/14 05:31:25;;;;;;;27.58;15.60;;;;;;;11.25;100.00;101063.53;10355408;28;20128;-84
2022/10/14 05:36:26;;;;;;;19.20;14.13;;;;;;;11.27;100.00;101065.41;10355949;28;20478;-82
2022/10/14 05:41:26;;;;;;;24.13;13.88;;;;;;;11.31;100.00;101061.19;10357295;28;20095;-83
2022/10/14 05:46:27;;;;;;;23.17;14.13;;;;;;;11.39;100.00;101054.59;10359125;28;20061;-85
2022/10/14 05:51:27;;;;;;;23.63;14.77;;;;;;;11.33;100.00;101038.56;10359237;28;20120;-84
2022/10/14 05:56:28;;;;;;;22.73;13.27;;;;;;;11.39;100.00;101041.50;10357555;28;20075;-81
2022/10/14 06:01:28;;;;;;;22.88;14.80;;;;;;;11.39;100.00;101036.25;10359828;28;20042;-81
2022/10/14 06:06:29;;;;;;;20.83;13.40;;;;;;;11.39;100.00;101035.38;10356968;28;20072;-84
2022/10/14 06:11:29;;;;;;;22.42;15.07;;;;;;;11.44;100.00;101033.84;10358270;28;20486;-86
2022/10/14 06:16:30;;;;;;;21.27;15.70;;;;;;;11.42;100.00;101027.66;10357703;28;20061;-82
2022/10/14 06:21:30;;;;;;;21.20;15.27;;;;;;;11.50;100.00;101030.59;10356494;28;20049;-85
2022/10/14 06:26:31;;;;;;;24.15;18.38;;;;;;;11.54;100.00;101030.84;10357135;28;20033;-85
2022/10/14 06:31:31;;;;;;;42.33;22.02;;;;;;;11.54;100.00;101020.34;10357470;28;20378;-88
2022/10/14 06:36:32;;;;;;;24.00;16.95;;;;;;;11.59;100.00;101007.44;10355064;28;20045;-88
2022/10/14 06:41:33;;;;;;;22.95;15.93;;;;;;;11.60;100.00;101001.38;10355167;28;20430;-85
2022/10/14 06:46:33;;;;;;;21.13;12.90;;;;;;;11.66;100.00;100991.16;10338835;28;20061;-87
2022/10/14 06:51:34;;;;;;;18.00;11.30;;;;;;;11.68;100.00;100999.13;10358015;28;20034;-88
2022/10/14 06:56:34;;;;;;;20.67;12.82;;;;;;;11.73;100.00;100994.97;10338508;28;20046;-87
2022/10/14 07:01:38;;;;;;;15.93;10.35;;;;;;;11.75;100.00;100990.69;10358586;28;20121;-85
2022/10/14 07:06:40;;;;;;;21.58;13.95;;;;;;;11.74;100.00;100991.53;10363491;28;20172;-88
2022/10/14 07:11:41;;;;;;;17.63;13.13;;;;;;;11.81;100.00;100992.69;10348119;28;20050;-86
2022/10/14 07:16:42;;;;;;;17.50;13.17;;;;;;;11.82;100.00;100995.38;10363891;28;20050;-82
2022/10/14 07:21:45;;;;;;;21.48;12.18;;;;;;;11.88;100.00;101002.63;10364362;28;20077;-82
2022/10/14 07:26:45;;;;;;;17.80;11.57;;;;;;;11.89;100.00;100997.47;10346843;28;20038;-85
2022/10/14 07:31:46;;;;;;;21.05;11.23;;;;;;;11.99;100.00;100996.13;10346963;28;20478;-85
2022/10/14 07:36:47;;;;;;;17.67;12.13;;;;;;;12.02;100.00;100998.03;10362337;28;20037;-81
2022/10/14 07:41:47;;;;;;;18.40;12.77;;;;;;;12.07;100.00;100996.50;10364430;28;20046;-86
2022/10/14 07:46:48;;;;;;;16.88;12.30;;;;;;;12.13;100.00;100990.59;10363273;28;20073;-87
2022/10/14 07:51:48;;;;;;;16.33;11.43;;;;;;;12.26;100.00;100986.81;10363333;28;20053;-87
2022/10/14 07:56:49;;;;;;;14.85;10.82;;;;;;;12.42;100.00;100998.84;10362201;28;20034;-88
2022/10/14 08:01:50;;;;;;;17.02;11.75;;;;;;;12.55;100.00;100985.38;10344359;28;20046;-84
2022/10/14 08:06:50;;;;;;;15.13;10.57;;;;;;;12.75;100.00;100982.69;10362090;28;20108;-81
2022/10/14 08:11:51;;;;;;;10.60;7.80;;;;;;;12.77;100.00;100991.53;10362758;28;20038;-84
2022/10/14 08:16:52;;;;;;;13.35;10.18;;;;;;;12.63;100.00;100977.84;10344677;28;20045;-88
2022/10/14 08:21:52;;;;;;;12.02;8.73;;;;;;;12.55;100.00;100971.38;10362250;28;20046;-84
2022/10/14 08:26:55;;;;;;;11.98;8.45;;;;;;;12.70;100.00;100963.22;10361187;28;20058;-84
2022/10/14 08:31:55;;;;;;;12.85;8.77;;;;;;;12.86;100.00;100962.13;10344725;28;20084;-84
2022/10/14 08:36:56;;;;;;;11.45;8.07;;;;;;;13.00;100.00;100965.28;10355890;28;20042;-84
2022/10/14 08:42:36;;;;;;;20.05;10.00;;;;;;;13.09;100.00;100959.50;10359359;28;20029;-83
2022/10/14 08:47:40;;;;;;;12.40;7.75;;;;;;;13.10;100.00;100954.28;10360243;28;20045;-83
2022/10/14 08:52:47;;;;;;;9.35;6.72;;;;;;;13.25;100.00;100950.47;10343603;28;20053;-83
2022/10/14 08:57:54;;;;;;;10.65;6.82;;;;;;;13.30;100.00;100941.94;10361120;28;20049;-83
2022/10/14 09:02:55;;;;;;;7.50;5.78;;;;;;;13.40;100.00;100944.91;10358768;28;20038;-79
2022/10/14 09:07:56;;;;;;;8.70;6.13;;;;;;;13.40;100.00;100944.91;10325199;28;20045;-80
2022/10/14 09:12:59;;;;;;;7.78;6.05;;;;;;;13.36;100.00;100941.25;10342940;28;20046;-81
2022/10/14 09:18:20;;;;;;;8.85;6.78;;;;;;;13.55;100.00;100941.97;10341862;28;20053;-81
2022/10/14 09:23:23;;;;;;;9.75;7.10;;;;;;;13.74;100.00;100933.91;10359482;28;20042;-81
2022/10/14 09:28:37;;;;;;;8.52;5.85;;;;;;;13.86;100.00;100940.44;10358543;28;20041;-81
2022/10/14 09:33:38;;;;;;;11.30;6.43;;;;;;;13.90;100.00;100930.09;10344094;28;20551;-81
2022/10/14 09:38:39;;;;;;;10.17;6.37;;;;;;;13.95;100.00;100930.22;10358020;28;20069;-81
2022/10/14 09:44:20;;;;;;;8.90;7.35;;;;;;;14.05;100.00;100931.47;10341785;28;20688;-79
2022/10/14 09:49:36;;;;;;;8.07;6.53;;;;;;;13.95;100.00;100930.22;10357016;28;20566;-80
2022/10/14 09:54:36;;;;;;;8.35;5.85;;;;;;;14.06;100.00;100928.00;10357821;28;20441;-79
2022/10/14 09:59:52;;;;;;;12.23;6.35;;;;;;;13.95;100.00;100920.63;10340910;28;20037;-83
2022/10/14 10:04:57;;;;;;;11.85;7.07;;;;;;;14.01;100.00;100921.66;10341706;28;20117;-83
2022/10/14 10:09:59;;;;;;;12.70;7.40;;;;;;;13.83;100.00;100911.38;10357410;28;20064;-83
2022/10/14 10:15:04;;;;;;;8.43;7.20;;;;;;;13.99;100.00;100916.34;10340845;28;20393;-86
2022/10/14 10:20:15;;;;;;;8.90;6.35;;;;;;;13.89;100.00;100909.88;10342018;28;20048;-82
2022/10/14 10:25:17;;;;;;;10.30;7.20;;;;;;;13.76;100.00;100907.66;10359332;28;20398;-83
2022/10/14 10:30:26;;;;;;;;;;;;;;;13.75;100.00;100903.25;10357479;28;20125;-85
2022/10/14 10:35:45;;;;;;;14.77;8.43;;;;;;;13.67;100.00;100894.19;10332215;28;19927;-84
2022/10/14 10:41:04;;;;;;;10.05;7.57;;;;;;;13.59;100.00;100889.56;10362872;28;20049;-83
2022/10/14 10:46:05;;;;;;;10.80;7.22;;;;;;;13.64;100.00;100881.81;10363937;28;20402;-84
2022/10/14 10:51:09;;;;;;;19.75;9.10;;;;;;;13.67;100.00;100875.78;10365048;28;20046;-86
2022/10/14 10:56:37;;;;;;;12.27;8.57;;;;;;;13.57;100.00;100877.16;10364050;28;20041;-87
2022/10/14 11:01:51;;;;;;;11.15;8.35;;;;;;;13.70;100.00;100874.13;10364183;28;20034;-89
2022/10/14 11:12:51;;;;;;;9.63;7.63;;;;;;;13.46;100.00;100866.28;10362664;28;20482;-84
2022/10/14 11:17:56;;;;;;;13.20;9.15;;;;;;;13.39;100.00;100849.34;10364287;28;20037;-85
2022/10/14 11:23:34;;;;;;;10.32;7.68;;;;;;;13.41;100.00;100852.06;10364153;28;20038;-84
2022/10/14 11:28:41;;;;;;;11.13;7.97;;;;;;;13.37;100.00;100845.78;10365369;28;20494;-83
2022/10/14 11:33:59;;;;;;;30.63;8.32;;;;;;;13.44;100.00;100847.81;10363649;28;20061;-82
2022/10/14 11:39:16;;;;;;;12.05;8.82;;;;;;;13.51;100.00;100841.06;10365352;28;20037;-83
2022/10/14 11:44:22;;;;;;;16.70;9.82;;;;;;;13.74;100.00;100835.69;10363020;28;20125;-85
2022/10/14 11:49:28;;;;;;;14.60;7.97;;;;;;;13.91;100.00;100831.91;10365481;28;20046;-86
2022/10/14 11:54:33;;;;;;;17.23;9.15;;;;;;;14.05;100.00;100819.19;10345484;28;20559;-86
2022/10/14 11:59:36;;;;;;;11.27;8.40;;;;;;;14.30;100.00;100811.19;10362667;28;20050;-85
2022/10/14 12:04:37;;;;;;;13.95;8.48;;;;;;;14.43;100.00;100816.00;10362881;28;20050;-85
2022/10/14 12:09:40;;;;;;;8.82;7.03;;;;;;;14.47;100.00;100795.91;10329667;28;20179;-83
2022/10/14 12:14:45;;;;;;;10.00;7.53;;;;;;;14.26;100.00;100783.88;10345595;28;20049;-82
2022/10/14 12:19:45;;;;;;;10.95;6.90;;;;;;;14.17;100.00;100781.84;10359649;28;20045;-85
2022/10/14 12:24:54;;;;;;;24.50;16.98;;;;;;;14.08;100.00;100789.47;10306455;28;20236;-83
2022/10/14 12:29:57;;;;;;;18.20;11.23;;;;;;;14.05;100.00;100787.59;10335842;28;20050;-87
2022/10/14 12:35:03;;;;;;;12.32;9.30;;;;;;;14.14;100.00;100767.69;10343408;28;20088;-83
2022/10/14 12:40:05;;;;;;;15.32;8.98;;;;;;;14.35;100.00;100763.09;10357133;28;20069;-83
2022/10/14 12:45:14;;;;;;;14.82;9.55;;;;;;;14.37;100.00;100742.97;10359463;28;20048;-83
2022/10/14 12:50:14;;;;;;;12.68;8.00;;;;;;;14.48;100.00;100743.31;10341137;28;20069;-83
2022/10/14 12:55:19;;;;;;;18.63;12.38;;;;;;;14.69;100.00;100750.06;10357921;28;20092;-88
2022/10/14 13:00:22;;;;;;;12.52;8.30;;;;;;;14.93;100.00;100749.00;10338294;28;20111;-84
2022/10/14 13:05:40;;;;;;;12.00;8.35;;;;;;;15.01;100.00;100743.91;10358505;28;20045;-83
2022/10/14 13:10:53;;;;;;;12.02;7.47;;;;;;;14.93;100.00;100735.81;10337888;28;20058;-85
2022/10/14 13:15:54;;;;;;;9.90;7.40;;;;;;;14.70;100.00;100724.63;10357073;28;20502;-88
2022/10/14 13:20:54;;;;;;;11.48;8.45;;;;;;;14.62;100.00;100727.91;10356440;28;20050;-85
2022/10/14 13:26:29;;;;;;;13.05;8.48;;;;;;;14.82;100.00;100714.44;10358010;28;20091;-85
2022/10/14 13:31:51;;;;;;;10.27;7.03;;;;;;;15.11;100.00;100725.78;10344315;28;20503;-89
2022/10/14 13:37:08;;;;;;;14.00;9.13;;;;;;;15.43;100.00;100722.19;10357493;28;20042;-85
2022/10/14 13:42:38;;;;;;;7.18;6.25;;;;;;;15.44;100.00;100716.06;10341040;28;20029;-85
2022/10/14 13:47:46;;;;;;;10.80;6.15;;;;;;;15.26;100.00;100712.09;10344243;28;20041;-85
2022/10/14 13:52:53;;;;;;;10.70;8.05;;;;;;;15.00;100.00;100714.06;10354700;28;20050;-85
2022/10/14 13:58:06;;;;;;;7.38;4.75;;;;;;;14.88;100.00;100704.06;10339228;28;20486;-88
2022/10/14 14:03:35;;;;;;;7.97;6.28;;;;;;;14.98;100.00;100702.59;10338703;28;20053;-87
2022/10/14 14:08:44;;;;;;;7.80;5.55;;;;;;;15.05;100.00;100708.91;10354656;28;20446;-84
2022/10/14 14:13:55;;;;;;;8.18;5.45;;;;;;;15.05;100.00;100693.09;10354862;28;20068;-85
2022/10/14 14:18:56;;;;;;;9.30;6.63;;;;;;;15.02;100.00;100685.09;10354349;28;20037;-83
2022/10/14 14:23:58;;;;;;;8.73;6.00;;;;;;;15.08;100.00;100679.97;10356355;28;20393;-85
2022/10/14 14:28:59;;;;;;;7.72;4.80;;;;;;;14.95;100.00;100677.03;10352046;28;20065;-81
2022/10/14 14:33:59;;;;;;;8.95;4.82;;;;;;;14.79;100.00;100678.38;10334110;28;20042;-87
2022/10/14 14:39:00;;;;;;;9.80;4.88;;;;;;;14.74;100.00;100672.09;10353434;28;20038;-81
2022/10/14 14:44:02;;;;;;;7.07;4.63;;;;;;;14.61;100.00;100675.19;10329401;28;20045;-82
2022/10/14 14:49:03;;;;;;;5.88;5.15;;;;;;;14.46;100.00;100679.19;10336991;28;20486;-83
2022/10/14 14:54:04;;;;;;;7.60;5.93;;;;;;;14.28;100.00;100674.25;10353829;28;20046;-80
2022/10/14 14:59:17;;;;;;;8.68;6.47;;;;;;;14.15;100.00;100670.38;10334256;28;20568;-82
2022/10/14 15:04:19;;;;;;;10.38;8.13;;;;;;;14.12;100.00;100667.66;10328643;28;20041;-82
2022/10/14 15:09:41;;;;;;;8.48;5.90;;;;;;;14.01;100.00;100667.31;10334816;28;20049;-83
2022/10/14 15:14:46;;;;;;;6.70;5.53;;;;;;;13.89;100.00;100654.69;10353543;28;20053;-83
2022/10/14 15:19:46;;;;;;;7.03;5.38;;;;;;;13.86;100.00;100653.69;10352393;28;20502;-87
2022/10/14 15:25:03;;;;;;;10.18;6.25;;;;;;;13.86;100.00;100651.97;10354176;28;20072;-84
2022/10/14 15:30:22;;;;;;;11.57;4.78;;;;;;;13.82;100.00;100663.25;10353513;28;20124;-84
2022/10/14 15:35:23;;;;;;;7.88;6.07;;;;;;;13.77;100.00;100656.94;10355232;28;20056;-83
2022/10/14 15:40:30;;;;;;;9.80;5.13;;;;;;;13.69;100.00;100653.19;10358916;28;20111;-82
2022/10/14 15:45:30;;;;;;;9.18;5.18;;;;;;;13.64;100.00;100643.41;10344331;28;20039;-81
2022/10/14 15:50:31;;;;;;;12.45;6.53;;;;;;;13.57;100.00;100654.59;10341978;28;21788;-81
2022/10/14 15:55:34;;;;;;;12.70;6.80;;;;;;;13.46;100.00;100659.47;10341959;28;20515;-81
2022/10/14 16:00:35;;;;;;;10.00;6.88;;;;;;;13.34;100.00;100654.69;10358894;28;20041;-81
2022/10/14 16:05:37;;;;;;;12.02;6.53;;;;;;;13.24;100.00;100646.44;10359098;28;20034;-82
2022/10/14 16:10:37;;;;;;;21.98;9.55;;;;;;;13.07;100.00;100650.31;10355601;28;20038;-79
2022/10/14 16:15:57;;;;;;;12.07;7.05;;;;;;;12.99;100.00;100643.91;10359716;28;20506;-80
2022/10/14 16:20:58;;;;;;;13.20;8.57;;;;;;;12.79;100.00;100640.56;10354986;28;20042;-80
2022/10/14 16:25:59;;;;;;;14.52;8.32;;;;;;;12.66;100.00;100634.00;10357262;28;20050;-80
2022/10/14 16:30:59;;;;;;;14.43;9.32;;;;;;;12.50;100.00;100637.78;10359592;28;20034;-80
2022/10/14 16:36:01;;;;;;;31.27;11.35;;;;;;;12.38;100.00;100640.88;10359059;28;20075;-79
2022/10/14 16:41:01;;;;;;;39.37;12.67;;;;;;;12.22;100.00;100639.41;10358773;28;20069;-81
2022/10/14 16:46:04;;;;;;;16.00;9.32;;;;;;;12.06;100.00;100632.72;10356067;28;20128;-80
2022/10/14 16:51:05;;;;;;;13.68;8.68;;;;;;;12.03;100.00;100640.47;10338690;28;20050;-80
2022/10/14 17:01:37;;;;;;;13.57;8.63;;;;;;;11.76;100.00;100651.63;10347185;28;20042;-80
2022/10/14 17:06:37;;;;;;;8.50;4.25;;;;;;;11.68;100.00;100642.56;10359088;28;20048;-80
2022/10/14 17:11:38;;;;;;;4.63;3.35;;;;;;;11.58;100.00;100630.81;10359563;28;20034;-80
2022/10/14 17:16:39;;;;;;;24.13;9.27;;;;;;;11.51;100.00;100628.78;10356162;28;20111;-79
2022/10/14 17:21:39;;;;;;;56.60;11.43;;;;;;;11.51;100.00;100611.34;10358637;28;20103;-80
2022/10/14 17:26:40;;;;;;;54.25;15.30;;;;;;;11.43;100.00;100628.50;10357996;28;20058;-80
2022/10/14 17:31:40;;;;;;;17.50;14.07;;;;;;;11.38;100.00;100622.16;10359156;28;20056;-80
2022/10/14 17:36:41;;;;;;;14.45;5.30;;;;;;;11.46;100.00;100615.50;10356013;28;20125;-80
2022/10/14 17:41:41;;;;;;;12.90;6.25;;;;;;;11.49;100.00;100626.13;10341740;28;20056;-80
2022/10/14 17:46:42;;;;;;;23.58;10.00;;;;;;;11.49;100.00;100623.50;10356805;28;20425;-80
2022/10/14 17:51:43;;;;;;;27.55;12.05;;;;;;;11.56;100.00;100627.25;10355465;28;20065;-80
2022/10/14 17:56:44;;;;;;;18.37;8.73;;;;;;;11.60;100.00;100631.78;10355655;28;20050;-79
2022/10/14 18:01:44;;;;;;;23.20;11.07;;;;;;;11.51;100.00;100621.84;10358973;28;20058;-79
2022/10/14 18:06:46;;;;;;;19.92;10.60;;;;;;;11.44;100.00;100625.03;10354238;28;20087;-80
2022/10/14 18:11:49;;;;;;;24.80;13.67;;;;;;;11.40;100.00;100620.50;10355350;28;20049;-80
2022/10/14 18:16:51;;;;;;;20.45;12.32;;;;;;;11.37;100.00;100620.38;10355730;28;20042;-80
2022/10/14 18:21:51;;;;;;;30.48;15.13;;;;;;;11.34;100.00;100628.13;10355453;28;20065;-80
2022/10/14 18:26:52;;;;;;;19.73;12.35;;;;;;;11.27;100.00;100629.59;10356944;28;20485;-80
2022/10/14 18:31:52;;;;;;;21.85;11.70;;;;;;;11.24;100.00;100622.50;10353850;28;20042;-80
2022/10/14 18:36:53;;;;;;;24.30;12.30;;;;;;;11.24;100.00;100601.56;10356765;28;20134;-80
2022/10/14 18:41:53;;;;;;;19.50;11.45;;;;;;;11.22;100.00;100600.59;10328706;28;20493;-80
2022/10/14 18:46:55;;;;;;;19.38;10.00;;;;;;;11.22;100.00;100618.94;10353368;28;20030;-79
2022/10/14 18:51:56;;;;;;;35.13;12.20;;;;;;;11.23;100.00;100598.84;10338274;28;20141;-80
2022/10/14 18:56:57;;;;;;;52.97;14.25;;;;;;;11.22;100.00;100616.31;10354915;28;20033;-79
2022/10/14 19:01:57;;;;;;;39.38;15.77;;;;;;;11.21;100.00;100611.00;10357018;28;20041;-80
2022/10/14 19:06:58;;;;;;;34.10;15.10;;;;;;;11.23;100.00;100611.94;10362386;28;20120;-80
2022/10/14 19:11:58;;;;;;;29.02;15.10;;;;;;;11.24;100.00;100603.25;10342699;28;20132;-80
2022/10/14 19:16:59;;;;;;;30.55;14.60;;;;;;;11.20;100.00;100593.50;10351095;28;20133;-80
2022/10/14 19:21:59;;;;;;;36.88;16.58;;;;;;;11.23;100.00;100591.00;10356444;28;20057;-80
2022/10/14 19:27:00;;;;;;;33.97;15.73;;;;;;;11.22;100.00;100582.25;10364146;28;20486;-80
2022/10/14 19:32:00;;;;;;;29.25;15.75;;;;;;;11.23;100.00;100577.91;10361424;28;20120;-81
2022/10/14 19:37:01;;;;;;;27.75;13.95;;;;;;;11.22;100.00;100573.50;10352705;28;20048;-79
2022/10/14 19:42:01;;;;;;;27.33;11.82;;;;;;;11.14;100.00;100579.31;10349858;28;20432;-79
2022/10/14 19:47:02;;;;;;;28.33;13.98;;;;;;;11.04;100.00;100577.16;10345526;28;20030;-80
2022/10/14 19:52:03;;;;;;;20.35;13.23;;;;;;;10.85;100.00;100572.88;10346904;28;20394;-80
2022/10/14 19:57:03;;;;;;;53.92;17.45;;;;;;;10.86;100.00;100575.56;10351411;28;20550;-80
2022/10/14 20:02:04;;;;;;;36.03;16.88;;;;;;;10.70;100.00;100568.78;10347416;28;20125;-80
2022/10/14 20:07:04;;;;;;;78.43;18.52;;;;;;;10.69;100.00;100563.47;10345539;28;20049;-80
2022/10/14 20:12:05;;;;;;;41.17;16.75;;;;;;;10.65;100.00;100567.72;10347791;28;20038;-79
2022/10/14 20:17:06;;;;;;;30.95;16.75;;;;;;;10.62;100.00;100556.19;10344520;28;20561;-79
2022/10/14 20:22:06;;;;;;;40.00;21.20;;;;;;;10.65;100.00;100552.00;10362129;28;20120;-79
2022/10/14 20:27:07;;;;;;;55.17;21.83;;;;;;;10.73;100.00;100549.69;10360182;28;20133;-80
2022/10/14 20:32:08;;;;;;;37.30;18.55;;;;;;;10.70;100.00;100554.78;10358582;28;20037;-80
2022/10/14 20:37:08;;;;;;;29.85;18.35;;;;;;;10.64;100.00;100552.84;10342950;28;20046;-80
2022/10/14 20:42:09;;;;;;;46.15;22.52;;;;;;;10.69;100.00;100545.16;10359573;28;20068;-80
2022/10/14 20:47:09;;;;;;;46.60;23.05;;;;;;;10.74;100.00;100546.25;10360194;28;20052;-80
2022/10/14 20:52:10;;;;;;;34.88;20.15;;;;;;;10.69;100.00;100550.38;10358246;28;20045;-80
2022/10/14 20:57:10;;;;;;;51.80;25.85;;;;;;;10.63;100.00;100563.22;10359678;28;20117;-80
2022/10/14 21:02:19;;;;;;;36.85;19.90;;;;;;;10.56;100.00;100552.50;10359614;28;20099;-81
2022/10/14 21:07:19;;;;;;;36.78;19.80;;;;;;;10.49;100.00;100557.41;10352127;28;20452;-80
2022/10/14 21:12:20;;;;;;;30.92;18.38;;;;;;;10.46;100.00;100566.00;10356904;28;20111;-80
2022/10/14 21:17:20;;;;;;;34.22;18.10;;;;;;;10.45;100.00;100569.44;10360288;28;20052;-80
2022/10/14 21:22:21;;;;;;;35.40;20.75;;;;;;;10.46;100.00;100573.84;10357665;28;20053;-79
2022/10/14 21:27:21;;;;;;;40.38;21.42;;;;;;;10.44;100.00;100572.91;10358856;28;20072;-80
2022/10/14 21:32:22;;;;;;;27.48;19.27;;;;;;;10.36;100.00;100574.25;10358341;28;20076;-80
2022/10/14 21:37:23;;;;;;;69.70;26.10;;;;;;;10.41;100.00;100564.91;10356747;28;20050;-79
2022/10/14 21:42:23;;;;;;;32.58;19.50;;;;;;;10.35;100.00;100564.63;10355959;28;20042;-81
2022/10/14 21:47:24;;;;;;;35.53;17.30;;;;;;;10.33;100.00;100561.94;10358372;28;20038;-80
2022/10/14 21:52:24;;;;;;;32.40;15.95;;;;;;;10.36;100.00;100559.47;10357115;28;20629;-79
2022/10/14 21:57:25;;;;;;;35.03;18.10;;;;;;;10.35;100.00;100567.22;10358270;28;20100;-79
2022/10/14 22:02:25;;;;;;;42.58;20.33;;;;;;;10.39;100.00;100564.88;10356653;28;20482;-80
2022/10/14 22:07:26;;;;;;;31.48;17.05;;;;;;;10.43;100.00;100561.56;10356017;28;20042;-80
2022/10/14 22:12:28;;;;;;;34.28;18.88;;;;;;;10.43;100.00;100552.78;10354263;28;20406;-79
2022/10/14 22:17:29;;;;;;;46.70;23.55;;;;;;;10.41;100.00;100562.28;10355383;28;20616;-79
2022/10/14 22:22:29;;;;;;;57.47;30.63;;;;;;;10.36;100.00;100562.06;10355115;28;20038;-81
2022/10/14 22:27:30;;;;;;;35.67;17.48;;;;;;;10.43;100.00;100561.56;10355092;28;20066;-80
2022/10/14 22:32:30;;;;;;;49.42;23.55;;;;;;;10.39;100.00;100557.00;10357190;28;20125;-79
2022/10/14 22:37:31;;;;;;;49.55;24.55;;;;;;;10.36;100.00;100561.16;10360967;28;20553;-79
2022/10/14 22:42:31;;;;;;;61.53;28.45;;;;;;;10.38;100.00;100542.13;10347048;28;20084;-79
2022/10/14 22:47:32;;;;;;;33.38;18.60;;;;;;;10.40;100.00;100542.19;10365077;28;20042;-79
2022/10/14 22:52:32;;;;;;;56.92;25.45;;;;;;;10.39;100.00;100545.59;10363495;28;20042;-79